createdAt,value
2024-03-06T00:00:03.472Z,48.35
2024-03-06T00:00:17.280Z,47.60
2024-03-06T00:00:52.663Z,46.65
2024-03-06T00:01:26.004Z,47.20
2024-03-06T00:01:39.113Z,49.03
2024-03-06T00:01:52.325Z,48.38
2024-03-06T00:02:05.496Z,47.90
2024-03-06T00:02:18.494Z,48.50
2024-03-06T00:02:31.581Z,49.38
2024-03-06T00:02:46.212Z,48.33
2024-03-06T00:02:59.143Z,45.78
2024-03-06T00:03:12.347Z,45.85
2024-03-06T00:03:25.432Z,46.75
2024-03-06T00:03:38.447Z,47.25
2024-03-06T00:03:51.484Z,49.63
2024-03-06T00:04:05.613Z,48.80
2024-03-06T00:04:20.250Z,47.92
2024-03-06T00:04:34.490Z,46.63
2024-03-06T00:04:47.598Z,47.55
2024-03-06T00:05:00.962Z,47.78
2024-03-06T00:05:14.447Z,48.60
2024-03-06T00:05:27.537Z,48.63
2024-03-06T00:05:40.508Z,47.65
2024-03-06T00:05:53.422Z,48.45
2024-03-06T00:06:07.001Z,47.78
2024-03-06T00:06:19.982Z,47.80
2024-03-06T00:06:33.071Z,49.05
2024-03-06T00:06:46.013Z,49.63
2024-03-06T00:07:00.760Z,50.85
2024-03-06T00:07:13.921Z,50.15
2024-03-06T00:07:27.550Z,50.92
2024-03-06T00:07:41.257Z,49.97
2024-03-06T00:07:54.296Z,50.00
2024-03-06T00:08:07.955Z,50.70
2024-03-06T00:08:20.889Z,47.80
2024-03-06T00:08:34.860Z,50.25
2024-03-06T00:08:48.175Z,50.70
2024-03-06T00:09:01.235Z,49.28
2024-03-06T00:09:14.502Z,49.60
2024-03-06T00:09:28.401Z,50.88
2024-03-06T00:09:41.382Z,51.05
2024-03-06T00:09:54.477Z,50.03
2024-03-06T00:10:09.600Z,49.33
2024-03-06T00:10:22.557Z,51.58
2024-03-06T00:10:35.599Z,52.85
2024-03-06T00:10:48.814Z,52.05
2024-03-06T00:11:01.941Z,50.80
2024-03-06T00:11:15.110Z,50.20
2024-03-06T00:11:28.210Z,52.38
2024-03-06T00:11:41.594Z,52.55
2024-03-06T00:11:54.813Z,52.03
2024-03-06T00:12:09.081Z,51.65
2024-03-06T00:12:22.537Z,52.45
2024-03-06T00:12:35.739Z,50.63
2024-03-06T00:12:48.927Z,47.40
2024-03-06T00:13:01.934Z,49.25
2024-03-06T00:13:14.988Z,54.40
2024-03-06T00:13:27.989Z,55.00
2024-03-06T00:13:41.981Z,53.38
2024-03-06T00:13:55.179Z,54.85
2024-03-06T00:14:08.290Z,55.10
2024-03-06T00:14:22.960Z,53.20
2024-03-06T00:14:37.819Z,51.35
2024-03-06T00:14:50.892Z,50.05
2024-03-06T00:15:04.604Z,45.33
2024-03-06T00:15:18.670Z,45.47
2024-03-06T00:15:31.603Z,50.13
2024-03-06T00:15:44.904Z,50.85
2024-03-06T00:15:59.456Z,52.45
2024-03-06T00:16:12.475Z,53.63
2024-03-06T00:16:25.498Z,52.70
2024-03-06T00:16:39.396Z,53.13
2024-03-06T00:16:52.535Z,53.30
2024-03-06T00:17:07.271Z,53.00
2024-03-06T00:17:20.340Z,50.83
2024-03-06T00:17:33.378Z,51.30
2024-03-06T00:17:47.409Z,53.28
2024-03-06T00:18:01.125Z,55.47
2024-03-06T00:18:14.349Z,55.05
2024-03-06T00:18:27.365Z,55.05
2024-03-06T00:18:41.400Z,52.95
2024-03-06T00:18:54.352Z,52.90
2024-03-06T00:19:07.452Z,53.53
2024-03-06T00:19:21.722Z,57.28
2024-03-06T00:19:36.195Z,60.63
2024-03-06T00:19:49.284Z,56.90
2024-03-06T00:20:02.355Z,53.58
2024-03-06T00:20:15.676Z,56.38
2024-03-06T00:20:29.404Z,55.03
2024-03-06T00:20:43.587Z,53.53
2024-03-06T00:20:56.582Z,53.15
2024-03-06T00:21:10.922Z,53.58
2024-03-06T00:21:24.874Z,57.10
2024-03-06T00:21:37.836Z,59.92
2024-03-06T00:21:50.857Z,59.20
2024-03-06T00:22:04.871Z,55.08
2024-03-06T00:22:20.555Z,52.60
2024-03-06T00:22:35.022Z,54.90
2024-03-06T00:22:48.223Z,54.10
2024-03-06T00:23:01.175Z,54.65
2024-03-06T00:23:14.507Z,55.60
2024-03-06T00:23:28.482Z,54.95
2024-03-06T00:23:41.445Z,56.95
2024-03-06T00:23:54.370Z,59.00
2024-03-06T00:24:07.854Z,56.35
2024-03-06T00:24:20.890Z,58.03
2024-03-06T00:24:33.949Z,58.00
2024-03-06T00:24:46.893Z,55.42
2024-03-06T00:24:59.830Z,57.65
2024-03-06T00:25:14.011Z,60.67
2024-03-06T00:25:27.027Z,61.42
2024-03-06T00:25:40.036Z,62.10
2024-03-06T00:25:53.129Z,57.10
2024-03-06T00:26:06.198Z,55.83
2024-03-06T00:26:19.236Z,56.75
2024-03-06T00:26:32.180Z,56.17
2024-03-06T00:26:46.406Z,56.50
2024-03-06T00:26:59.288Z,59.33
2024-03-06T00:27:13.274Z,59.58
2024-03-06T00:27:26.183Z,58.75
2024-03-06T00:27:39.202Z,58.10
2024-03-06T00:27:52.152Z,55.28
2024-03-06T00:28:05.821Z,54.72
2024-03-06T00:28:18.858Z,55.75
2024-03-06T00:28:31.949Z,56.88
2024-03-06T00:28:44.913Z,57.53
2024-03-06T00:28:58.068Z,58.28
2024-03-06T00:29:11.195Z,60.78
2024-03-06T00:29:25.245Z,59.25
2024-03-06T00:29:39.352Z,60.22
2024-03-06T00:29:52.311Z,63.45
2024-03-06T00:30:08.131Z,65.40
2024-03-06T00:30:21.189Z,63.03
2024-03-06T00:30:34.237Z,63.80
2024-03-06T00:30:47.181Z,65.43
2024-03-06T00:31:01.516Z,62.42
2024-03-06T00:31:15.628Z,62.28
2024-03-06T00:31:28.622Z,63.53
2024-03-06T00:31:44.634Z,61.35
2024-03-06T00:31:57.647Z,57.70
2024-03-06T00:32:10.776Z,56.10
2024-03-06T00:32:24.829Z,59.08
2024-03-06T00:32:38.876Z,60.20
2024-03-06T00:32:51.836Z,57.50
2024-03-06T00:33:05.177Z,57.13
2024-03-06T00:33:18.920Z,55.40
2024-03-06T00:33:31.949Z,56.47
2024-03-06T00:33:44.893Z,57.22
2024-03-06T00:33:58.037Z,58.50
2024-03-06T00:34:11.492Z,60.20
2024-03-06T00:34:24.454Z,61.97
2024-03-06T00:34:38.612Z,60.10
2024-03-06T00:34:51.645Z,57.13
2024-03-06T00:35:05.353Z,57.33
2024-03-06T00:35:18.545Z,57.50
2024-03-06T00:35:31.508Z,56.40
2024-03-06T00:35:44.568Z,57.85
2024-03-06T00:35:57.559Z,59.90
2024-03-06T00:36:10.591Z,58.90
2024-03-06T00:36:23.914Z,58.38
2024-03-06T00:36:37.037Z,59.15
2024-03-06T00:36:51.505Z,59.08
2024-03-06T00:37:04.700Z,62.38
2024-03-06T00:37:17.692Z,61.50
2024-03-06T00:37:30.620Z,59.72
2024-03-06T00:37:43.666Z,59.47
2024-03-06T00:37:56.624Z,59.30
2024-03-06T00:38:09.693Z,59.60
2024-03-06T00:38:22.796Z,58.53
2024-03-06T00:38:36.877Z,56.55
2024-03-06T00:38:49.841Z,53.58
2024-03-06T00:39:05.793Z,55.08
2024-03-06T00:39:18.757Z,55.85
2024-03-06T00:39:31.757Z,57.35
2024-03-06T00:39:44.736Z,57.50
2024-03-06T00:39:57.768Z,59.00
2024-03-06T00:40:13.120Z,56.70
2024-03-06T00:40:26.113Z,61.13
2024-03-06T00:40:39.184Z,62.85
2024-03-06T00:40:52.298Z,60.47
2024-03-06T00:41:05.432Z,58.80
2024-03-06T00:41:19.032Z,55.13
2024-03-06T00:41:32.035Z,52.60
2024-03-06T00:41:45.008Z,54.65
2024-03-06T00:41:57.973Z,56.83
2024-03-06T00:42:14.975Z,56.28
2024-03-06T00:42:28.097Z,59.28
2024-03-06T00:42:42.505Z,63.20
2024-03-06T00:42:55.444Z,61.30
2024-03-06T00:43:08.511Z,58.17
2024-03-06T00:43:21.564Z,57.00
2024-03-06T00:43:34.529Z,57.38
2024-03-06T00:43:47.777Z,59.97
2024-03-06T00:44:00.836Z,60.67
2024-03-06T00:44:15.050Z,59.35
2024-03-06T00:44:28.047Z,58.67
2024-03-06T00:44:41.096Z,59.03
2024-03-06T00:44:54.098Z,55.50
2024-03-06T00:45:07.659Z,50.90
2024-03-06T00:45:20.599Z,55.30
2024-03-06T00:45:33.672Z,57.70
2024-03-06T00:45:46.760Z,55.42
2024-03-06T00:46:01.082Z,53.13
2024-03-06T00:46:15.180Z,54.53
2024-03-06T00:46:28.156Z,59.45
2024-03-06T00:46:41.178Z,59.03
2024-03-06T00:46:54.197Z,57.95
2024-03-06T00:47:07.313Z,54.53
2024-03-06T00:47:21.330Z,53.03
2024-03-06T00:47:35.991Z,53.47
2024-03-06T00:47:50.134Z,53.00
2024-03-06T00:48:03.251Z,54.17
2024-03-06T00:48:16.196Z,54.30
2024-03-06T00:48:29.144Z,54.38
2024-03-06T00:48:42.432Z,55.88
2024-03-06T00:48:55.459Z,57.78
2024-03-06T00:49:08.413Z,57.03
2024-03-06T00:49:21.413Z,54.00
2024-03-06T00:49:35.567Z,53.38
2024-03-06T00:49:48.703Z,52.53
2024-03-06T00:50:01.874Z,52.85
2024-03-06T00:50:15.246Z,51.97
2024-03-06T00:50:28.278Z,51.67
2024-03-06T00:50:41.353Z,50.88
2024-03-06T00:50:54.590Z,51.45
2024-03-06T00:51:08.374Z,53.38
2024-03-06T00:51:29.713Z,54.15
2024-03-06T00:51:51.029Z,53.33
2024-03-06T00:52:05.473Z,54.25
2024-03-06T00:52:18.470Z,53.30
2024-03-06T00:52:31.461Z,51.85
2024-03-06T00:52:44.543Z,51.45
2024-03-06T00:52:57.600Z,52.53
2024-03-06T00:53:10.759Z,51.63
2024-03-06T00:53:23.866Z,53.60
2024-03-06T00:53:38.129Z,54.75
2024-03-06T00:53:51.090Z,55.05
2024-03-06T00:54:04.147Z,57.40
2024-03-06T00:54:18.056Z,55.88
2024-03-06T00:54:31.955Z,54.90
2024-03-06T00:54:45.033Z,57.03
2024-03-06T00:54:57.979Z,56.78
2024-03-06T00:55:11.320Z,56.80
2024-03-06T00:55:24.293Z,53.30
2024-03-06T00:55:37.325Z,53.38
2024-03-06T00:55:50.530Z,53.50
2024-03-06T00:56:05.440Z,54.45
2024-03-06T00:56:18.485Z,52.08
2024-03-06T00:56:32.311Z,51.15
2024-03-06T00:56:45.300Z,53.25
2024-03-06T00:56:58.754Z,56.40
2024-03-06T00:57:11.924Z,55.22
2024-03-06T00:57:25.343Z,52.17
2024-03-06T00:57:38.492Z,51.65
2024-03-06T00:57:51.839Z,52.80
2024-03-06T00:58:05.190Z,52.83
2024-03-06T00:58:19.306Z,53.85
2024-03-06T00:58:32.379Z,55.08
2024-03-06T00:58:45.516Z,55.92
2024-03-06T00:58:58.716Z,55.30
2024-03-06T00:59:12.142Z,54.78
2024-03-06T00:59:25.298Z,55.25
2024-03-06T00:59:40.408Z,52.38
2024-03-06T00:59:53.399Z,50.92
2024-03-06T01:00:11.787Z,50.22
2024-03-06T01:00:24.984Z,54.00
2024-03-06T01:00:38.070Z,56.10
2024-03-06T01:00:51.302Z,55.60
2024-03-06T01:01:05.902Z,52.95
2024-03-06T01:01:22.277Z,51.15
2024-03-06T01:01:35.266Z,50.55
2024-03-06T01:01:48.405Z,52.40
2024-03-06T01:02:01.772Z,55.75
2024-03-06T01:02:15.920Z,54.15
2024-03-06T01:02:28.957Z,50.17
2024-03-06T01:02:42.351Z,51.70
2024-03-06T01:02:55.360Z,53.13
2024-03-06T01:03:08.405Z,54.10
2024-03-06T01:03:21.453Z,51.50
2024-03-06T01:03:34.605Z,49.72
2024-03-06T01:03:47.611Z,50.30
2024-03-06T01:04:01.963Z,51.63
2024-03-06T01:04:14.991Z,53.25
2024-03-06T01:04:28.148Z,55.58
2024-03-06T01:04:41.827Z,56.05
2024-03-06T01:04:55.255Z,52.13
2024-03-06T01:05:08.858Z,52.30
2024-03-06T01:05:22.040Z,51.15
2024-03-06T01:05:35.177Z,51.22
2024-03-06T01:05:49.428Z,50.60
2024-03-06T01:06:02.623Z,52.17
2024-03-06T01:06:15.634Z,53.15
2024-03-06T01:06:28.680Z,52.85
2024-03-06T01:06:41.697Z,54.03
2024-03-06T01:06:54.702Z,53.58
2024-03-06T01:07:08.243Z,52.40
2024-03-06T01:07:22.260Z,52.60
2024-03-06T01:07:35.898Z,52.97
2024-03-06T01:07:48.999Z,53.83
2024-03-06T01:08:02.187Z,55.38
2024-03-06T01:08:16.805Z,54.42
2024-03-06T01:08:31.818Z,52.42
2024-03-06T01:08:44.799Z,52.53
2024-03-06T01:08:59.709Z,53.15
2024-03-06T01:09:12.859Z,51.33
2024-03-06T01:09:28.382Z,49.03
2024-03-06T01:09:41.423Z,49.45
2024-03-06T01:09:54.405Z,53.33
2024-03-06T01:10:09.483Z,55.65
2024-03-06T01:10:22.709Z,54.08
2024-03-06T01:10:35.734Z,53.95
2024-03-06T01:10:49.094Z,54.58
2024-03-06T01:11:02.150Z,55.67
2024-03-06T01:11:16.820Z,57.55
2024-03-06T01:11:29.801Z,56.97
2024-03-06T01:11:42.803Z,55.13
2024-03-06T01:11:55.867Z,53.15
2024-03-06T01:12:09.260Z,58.40
2024-03-06T01:12:22.382Z,58.58
2024-03-06T01:12:35.526Z,55.13
2024-03-06T01:12:48.504Z,53.92
2024-03-06T01:13:01.547Z,55.40
2024-03-06T01:13:15.637Z,56.90
2024-03-06T01:13:28.749Z,58.58
2024-03-06T01:13:41.953Z,60.95
2024-03-06T01:13:55.661Z,62.53
2024-03-06T01:14:08.796Z,65.43
2024-03-06T01:14:21.938Z,66.97
2024-03-06T01:14:37.186Z,71.72
2024-03-06T01:14:52.180Z,78.00
2024-03-06T01:15:06.224Z,78.10
2024-03-06T01:15:19.519Z,84.32
2024-03-06T01:15:32.704Z,90.80
2024-03-06T01:15:46.021Z,89.95
2024-03-06T01:15:59.313Z,88.47
2024-03-06T01:16:13.863Z,89.22
2024-03-06T01:16:26.862Z,85.22
2024-03-06T01:16:40.883Z,86.63
2024-03-06T01:16:53.944Z,89.22
2024-03-06T01:17:07.626Z,91.43
2024-03-06T01:17:20.712Z,93.88
2024-03-06T01:17:33.750Z,92.97
2024-03-06T01:17:46.794Z,99.05
2024-03-06T01:17:59.940Z,102.03
2024-03-06T01:18:13.361Z,98.28
2024-03-06T01:18:27.317Z,98.55
2024-03-06T01:18:40.333Z,97.55
2024-03-06T01:18:53.259Z,97.72
2024-03-06T01:19:06.228Z,97.63
2024-03-06T01:19:19.461Z,95.93
2024-03-06T01:19:32.412Z,96.43
2024-03-06T01:19:45.670Z,99.88
2024-03-06T01:20:00.465Z,103.57
2024-03-06T01:20:13.644Z,101.63
2024-03-06T01:20:27.694Z,97.20
2024-03-06T01:20:41.548Z,97.28
2024-03-06T01:20:54.518Z,92.38
2024-03-06T01:21:07.565Z,90.97
2024-03-06T01:21:20.601Z,92.15
2024-03-06T01:21:35.660Z,87.97
2024-03-06T01:21:49.787Z,84.85
2024-03-06T01:22:03.737Z,88.10
2024-03-06T01:22:16.774Z,86.80
2024-03-06T01:22:29.715Z,88.78
2024-03-06T01:22:42.772Z,86.68
2024-03-06T01:22:56.090Z,81.30
2024-03-06T01:23:09.261Z,84.10
2024-03-06T01:23:22.277Z,83.07
2024-03-06T01:23:35.228Z,81.40
2024-03-06T01:23:48.289Z,82.13
2024-03-06T01:24:02.409Z,80.88
2024-03-06T01:24:15.489Z,80.63
2024-03-06T01:24:28.478Z,81.88
2024-03-06T01:24:41.627Z,86.40
2024-03-06T01:24:54.594Z,84.35
2024-03-06T01:25:08.466Z,86.95
2024-03-06T01:25:21.944Z,86.45
2024-03-06T01:25:34.892Z,79.97
2024-03-06T01:25:47.870Z,76.88
2024-03-06T01:26:01.991Z,78.28
2024-03-06T01:26:15.198Z,82.60
2024-03-06T01:26:28.463Z,87.70
2024-03-06T01:26:41.928Z,87.05
2024-03-06T01:26:54.869Z,83.10
2024-03-06T01:27:07.890Z,80.53
2024-03-06T01:27:20.787Z,80.13
2024-03-06T01:27:33.734Z,79.50
2024-03-06T01:27:46.625Z,79.13
2024-03-06T01:27:59.676Z,83.95
2024-03-06T01:28:13.895Z,84.22
2024-03-06T01:28:27.339Z,81.95
2024-03-06T01:28:40.581Z,83.88
2024-03-06T01:28:54.190Z,83.50
2024-03-06T01:29:07.464Z,84.15
2024-03-06T01:29:20.691Z,85.35
2024-03-06T01:29:33.938Z,85.53
2024-03-06T01:29:47.634Z,81.05
2024-03-06T01:30:00.876Z,79.88
2024-03-06T01:30:15.080Z,78.50
2024-03-06T01:30:28.079Z,76.03
2024-03-06T01:30:41.315Z,76.90
2024-03-06T01:30:54.313Z,79.53
2024-03-06T01:31:11.010Z,80.25
2024-03-06T01:31:25.328Z,79.47
2024-03-06T01:31:38.619Z,77.00
2024-03-06T01:31:51.687Z,78.20
2024-03-06T01:32:05.295Z,74.03
2024-03-06T01:32:18.579Z,74.95
2024-03-06T01:32:34.360Z,79.10
2024-03-06T01:32:47.618Z,75.25
2024-03-06T01:33:00.666Z,74.60
2024-03-06T01:33:13.827Z,74.90
2024-03-06T01:33:27.877Z,77.50
2024-03-06T01:33:40.843Z,76.85
2024-03-06T01:33:53.779Z,74.55
2024-03-06T01:34:07.733Z,72.60
2024-03-06T01:34:20.680Z,70.10
2024-03-06T01:34:33.772Z,71.10
2024-03-06T01:34:46.912Z,74.70
2024-03-06T01:34:59.866Z,74.90
2024-03-06T01:35:12.990Z,73.32
2024-03-06T01:35:26.084Z,70.60
2024-03-06T01:35:39.075Z,69.95
2024-03-06T01:35:51.956Z,70.55
2024-03-06T01:36:06.452Z,70.90
2024-03-06T01:36:19.456Z,72.47
2024-03-06T01:36:32.458Z,72.55
2024-03-06T01:36:45.329Z,68.95
2024-03-06T01:36:58.562Z,69.50
2024-03-06T01:37:11.545Z,73.63
2024-03-06T01:37:24.649Z,72.63
2024-03-06T01:37:37.605Z,69.63
2024-03-06T01:37:50.584Z,69.13
2024-03-06T01:38:03.609Z,72.97
2024-03-06T01:38:17.684Z,71.93
2024-03-06T01:38:30.864Z,67.47
2024-03-06T01:38:46.468Z,65.93
2024-03-06T01:38:59.419Z,66.10
2024-03-06T01:39:12.567Z,66.72
2024-03-06T01:39:25.459Z,66.65
2024-03-06T01:39:38.748Z,68.10
2024-03-06T01:39:51.687Z,70.10
2024-03-06T01:40:05.933Z,65.85
2024-03-06T01:40:19.868Z,64.32
2024-03-06T01:40:33.204Z,68.50
2024-03-06T01:40:46.418Z,68.72
2024-03-06T01:40:59.443Z,68.72
2024-03-06T01:41:12.523Z,67.03
2024-03-06T01:41:26.295Z,64.95
2024-03-06T01:41:39.283Z,63.53
2024-03-06T01:41:52.974Z,64.90
2024-03-06T01:42:05.988Z,65.43
2024-03-06T01:42:19.475Z,65.82
2024-03-06T01:42:33.600Z,64.70
2024-03-06T01:42:48.230Z,65.75
2024-03-06T01:43:02.570Z,62.47
2024-03-06T01:43:21.384Z,61.45
2024-03-06T01:43:39.523Z,61.90
2024-03-06T01:43:52.591Z,59.42
2024-03-06T01:44:06.151Z,60.60
2024-03-06T01:44:19.817Z,65.57
2024-03-06T01:44:33.807Z,68.60
2024-03-06T01:44:46.723Z,70.55
2024-03-06T01:45:00.312Z,72.70
2024-03-06T01:45:13.399Z,79.05
2024-03-06T01:45:26.388Z,83.00
2024-03-06T01:45:41.178Z,87.47
2024-03-06T01:45:55.270Z,94.88
2024-03-06T01:46:09.621Z,100.75
2024-03-06T01:46:23.575Z,98.80
2024-03-06T01:46:37.922Z,95.15
2024-03-06T01:46:51.061Z,99.55
2024-03-06T01:47:04.077Z,98.22
2024-03-06T01:47:17.126Z,96.85
2024-03-06T01:47:30.381Z,102.82
2024-03-06T01:47:43.467Z,100.13
2024-03-06T01:47:56.516Z,94.72
2024-03-06T01:48:09.897Z,93.47
2024-03-06T01:48:26.936Z,94.35
2024-03-06T01:48:40.741Z,89.03
2024-03-06T01:48:54.121Z,86.53
2024-03-06T01:49:07.880Z,81.25
2024-03-06T01:49:28.568Z,81.07
2024-03-06T01:49:45.991Z,84.22
2024-03-06T01:49:59.213Z,83.13
2024-03-06T01:50:13.570Z,88.18
2024-03-06T01:50:26.691Z,93.50
2024-03-06T01:50:39.737Z,90.53
2024-03-06T01:50:54.763Z,85.78
2024-03-06T01:51:07.787Z,82.65
2024-03-06T01:51:21.269Z,80.97
2024-03-06T01:51:34.421Z,79.03
2024-03-06T01:51:53.021Z,76.63
2024-03-06T01:52:07.012Z,75.32
2024-03-06T01:52:22.698Z,78.90
2024-03-06T01:52:35.903Z,78.75
2024-03-06T01:52:49.354Z,70.40
2024-03-06T01:53:03.635Z,67.03
2024-03-06T01:53:19.783Z,68.85
2024-03-06T01:53:34.752Z,70.78
2024-03-06T01:53:48.984Z,70.10
2024-03-06T01:54:05.305Z,67.90
2024-03-06T01:54:19.123Z,67.50
2024-03-06T01:54:33.349Z,65.25
2024-03-06T01:54:47.095Z,64.32
2024-03-06T01:55:00.257Z,62.15
2024-03-06T01:55:14.029Z,60.75
2024-03-06T01:55:27.001Z,62.15
2024-03-06T01:55:41.171Z,64.35
2024-03-06T01:55:54.410Z,64.45
2024-03-06T01:56:13.249Z,63.95
2024-03-06T01:56:26.490Z,62.60
2024-03-06T01:56:44.520Z,64.40
2024-03-06T01:56:59.086Z,65.55
2024-03-06T01:57:14.711Z,65.85
2024-03-06T01:57:27.895Z,67.38
2024-03-06T01:57:42.668Z,70.05
2024-03-06T01:57:55.687Z,68.60
2024-03-06T01:58:09.875Z,66.35
2024-03-06T01:58:25.082Z,67.93
2024-03-06T01:58:38.619Z,66.68
2024-03-06T01:58:52.205Z,66.18
2024-03-06T01:59:06.148Z,63.83
2024-03-06T01:59:31.757Z,62.08
2024-03-06T01:59:51.517Z,62.95
2024-03-06T02:00:06.071Z,63.78
2024-03-06T02:00:19.374Z,64.88
2024-03-06T02:00:32.427Z,64.40
2024-03-06T02:00:45.687Z,63.15
2024-03-06T02:00:59.302Z,60.78
2024-03-06T02:01:12.568Z,59.90
2024-03-06T02:01:26.748Z,61.15
2024-03-06T02:01:41.763Z,62.72
2024-03-06T02:01:55.923Z,62.63
2024-03-06T02:02:09.849Z,63.38
2024-03-06T02:02:22.996Z,62.53
2024-03-06T02:02:36.253Z,61.58
2024-03-06T02:02:50.299Z,63.50
2024-03-06T02:03:03.456Z,61.85
2024-03-06T02:03:16.659Z,63.00
2024-03-06T02:03:31.142Z,63.00
2024-03-06T02:03:45.344Z,63.00
2024-03-06T02:03:58.435Z,60.42
2024-03-06T02:04:13.446Z,63.22
2024-03-06T02:04:29.221Z,64.47
2024-03-06T02:04:42.301Z,61.72
2024-03-06T02:04:56.276Z,61.28
2024-03-06T02:05:09.869Z,64.45
2024-03-06T02:05:24.761Z,63.30
2024-03-06T02:05:38.046Z,64.18
2024-03-06T02:05:51.945Z,65.47
2024-03-06T02:06:06.171Z,61.03
2024-03-06T02:06:20.866Z,59.38
2024-03-06T02:06:34.780Z,61.40
2024-03-06T02:06:48.436Z,61.58
2024-03-06T02:07:01.695Z,59.28
2024-03-06T02:07:15.621Z,58.60
2024-03-06T02:07:34.746Z,60.17
2024-03-06T02:07:49.109Z,60.78
2024-03-06T02:08:02.159Z,60.35
2024-03-06T02:08:15.393Z,63.83
2024-03-06T02:08:28.453Z,62.30
2024-03-06T02:08:41.495Z,61.67
2024-03-06T02:08:54.707Z,64.28
2024-03-06T02:09:08.263Z,68.47
2024-03-06T02:09:21.478Z,73.55
2024-03-06T02:09:35.641Z,70.10
2024-03-06T02:09:50.112Z,66.97
2024-03-06T02:10:03.263Z,68.70
2024-03-06T02:10:16.313Z,65.78
2024-03-06T02:10:29.583Z,63.05
2024-03-06T02:10:42.768Z,65.40
2024-03-06T02:10:56.738Z,69.18
2024-03-06T02:11:09.959Z,65.88
2024-03-06T02:11:23.194Z,62.33
2024-03-06T02:11:36.715Z,63.13
2024-03-06T02:11:51.445Z,61.40
2024-03-06T02:12:04.945Z,62.13
2024-03-06T02:12:18.407Z,64.38
2024-03-06T02:12:31.735Z,66.95
2024-03-06T02:12:44.992Z,66.35
2024-03-06T02:12:59.234Z,67.82
2024-03-06T02:13:13.479Z,63.65
2024-03-06T02:13:27.457Z,61.50
2024-03-06T02:13:41.037Z,63.35
2024-03-06T02:13:54.034Z,65.20
2024-03-06T02:14:11.052Z,65.07
2024-03-06T02:14:24.790Z,67.03
2024-03-06T02:14:37.956Z,67.65
2024-03-06T02:14:51.007Z,65.45
2024-03-06T02:15:04.342Z,63.97
2024-03-06T02:15:18.338Z,66.90
2024-03-06T02:15:31.779Z,66.82
2024-03-06T02:15:46.511Z,63.42
2024-03-06T02:15:59.788Z,59.80
2024-03-06T02:16:13.314Z,58.88
2024-03-06T02:16:26.889Z,56.45
2024-03-06T02:16:41.217Z,60.70
2024-03-06T02:16:54.248Z,61.17
2024-03-06T02:17:08.389Z,59.05
2024-03-06T02:17:23.220Z,59.20
2024-03-06T02:17:36.938Z,59.00
2024-03-06T02:17:49.953Z,58.38
2024-03-06T02:18:06.723Z,60.15
2024-03-06T02:18:20.012Z,62.80
2024-03-06T02:18:33.365Z,61.63
2024-03-06T02:18:55.674Z,58.85
2024-03-06T02:19:09.904Z,58.20
2024-03-06T02:19:23.881Z,56.28
2024-03-06T02:19:42.140Z,57.78
2024-03-06T02:19:55.319Z,57.53
2024-03-06T02:20:13.745Z,57.35
2024-03-06T02:20:28.390Z,57.00
2024-03-06T02:20:42.071Z,56.25
2024-03-06T02:20:55.197Z,55.15
2024-03-06T02:21:08.836Z,53.35
2024-03-06T02:21:22.248Z,52.53
2024-03-06T02:21:36.669Z,52.13
2024-03-06T02:21:49.604Z,52.83
2024-03-06T02:22:03.775Z,53.38
2024-03-06T02:22:16.791Z,53.63
2024-03-06T02:22:29.817Z,51.42
2024-03-06T02:22:43.048Z,51.88
2024-03-06T02:22:56.105Z,52.85
2024-03-06T02:23:09.704Z,53.30
2024-03-06T02:23:24.188Z,52.90
2024-03-06T02:23:37.250Z,54.45
2024-03-06T02:23:52.385Z,53.65
2024-03-06T02:24:05.703Z,50.72
2024-03-06T02:24:18.983Z,51.90
2024-03-06T02:24:32.037Z,50.95
2024-03-06T02:24:47.214Z,51.55
2024-03-06T02:25:01.256Z,50.03
2024-03-06T02:25:16.287Z,48.92
2024-03-06T02:25:29.428Z,50.78
2024-03-06T02:25:42.776Z,48.85
2024-03-06T02:25:55.799Z,50.58
2024-03-06T02:26:08.953Z,51.85
2024-03-06T02:26:22.959Z,51.58
2024-03-06T02:26:35.987Z,51.25
2024-03-06T02:26:50.400Z,49.45
2024-03-06T02:27:03.659Z,46.88
2024-03-06T02:27:17.858Z,48.75
2024-03-06T02:27:30.877Z,51.65
2024-03-06T02:27:46.721Z,51.17
2024-03-06T02:28:00.343Z,50.38
2024-03-06T02:28:13.441Z,49.45
2024-03-06T02:28:27.493Z,50.83
2024-03-06T02:28:40.720Z,52.58
2024-03-06T02:28:54.990Z,51.33
2024-03-06T02:29:08.302Z,51.58
2024-03-06T02:29:24.571Z,50.53
2024-03-06T02:29:39.691Z,45.67
2024-03-06T02:29:52.768Z,46.08
2024-03-06T02:30:07.442Z,46.13
2024-03-06T02:30:22.801Z,45.55
2024-03-06T02:30:38.453Z,46.45
2024-03-06T02:30:51.948Z,45.50
2024-03-06T02:31:08.989Z,43.65
2024-03-06T02:31:24.141Z,45.42
2024-03-06T02:31:37.295Z,47.83
2024-03-06T02:31:50.312Z,47.10
2024-03-06T02:32:04.115Z,45.22
2024-03-06T02:32:19.534Z,44.42
2024-03-06T02:32:32.558Z,47.55
2024-03-06T02:32:45.572Z,47.63
2024-03-06T02:32:58.741Z,48.35
2024-03-06T02:33:11.851Z,48.95
2024-03-06T02:33:25.004Z,49.08
2024-03-06T02:33:38.010Z,48.53
2024-03-06T02:33:51.538Z,46.53
2024-03-06T02:34:07.732Z,46.08
2024-03-06T02:34:20.979Z,46.67
2024-03-06T02:34:33.954Z,46.17
2024-03-06T02:34:46.970Z,46.76
2024-03-06T02:34:59.947Z,46.42
2024-03-06T02:35:13.320Z,46.16
2024-03-06T02:35:27.893Z,48.00
2024-03-06T02:35:41.296Z,47.22
2024-03-06T02:35:54.283Z,44.20
2024-03-06T02:36:07.891Z,43.83
2024-03-06T02:36:22.018Z,43.80
2024-03-06T02:36:34.931Z,46.33
2024-03-06T02:36:47.914Z,46.33
2024-03-06T02:37:01.015Z,46.60
2024-03-06T02:37:14.094Z,46.92
2024-03-06T02:37:27.600Z,44.10
2024-03-06T02:37:42.241Z,46.47
2024-03-06T02:37:58.143Z,49.25
2024-03-06T02:38:12.333Z,46.28
2024-03-06T02:38:25.962Z,43.85
2024-03-06T02:38:39.079Z,44.95
2024-03-06T02:38:52.061Z,46.83
2024-03-06T02:39:10.069Z,44.80
2024-03-06T02:39:23.170Z,43.42
2024-03-06T02:39:36.186Z,44.45
2024-03-06T02:39:50.311Z,44.38
2024-03-06T02:40:03.528Z,45.35
2024-03-06T02:40:16.557Z,46.55
2024-03-06T02:40:30.102Z,46.45
2024-03-06T02:40:44.690Z,46.10
2024-03-06T02:40:57.709Z,46.13
2024-03-06T02:41:11.582Z,43.92
2024-03-06T02:41:24.729Z,41.83
2024-03-06T02:41:38.752Z,43.50
2024-03-06T02:41:51.747Z,45.22
2024-03-06T02:42:05.392Z,43.47
2024-03-06T02:42:18.474Z,43.60
2024-03-06T02:42:31.371Z,43.55
2024-03-06T02:42:44.630Z,41.78
2024-03-06T02:42:57.782Z,41.97
2024-03-06T02:43:10.757Z,41.88
2024-03-06T02:43:24.721Z,41.70
2024-03-06T02:43:38.056Z,41.92
2024-03-06T02:43:51.020Z,42.28
2024-03-06T02:44:18.612Z,43.28
2024-03-06T02:44:31.810Z,44.08
2024-03-06T02:44:45.215Z,46.70
2024-03-06T02:44:58.215Z,46.17
2024-03-06T02:45:12.128Z,43.40
2024-03-06T02:45:25.288Z,44.38
2024-03-06T02:45:38.312Z,44.08
2024-03-06T02:45:51.263Z,43.65
2024-03-06T02:46:04.930Z,42.28
2024-03-06T02:46:18.029Z,44.22
2024-03-06T02:46:31.273Z,43.78
2024-03-06T02:46:48.995Z,43.22
2024-03-06T02:47:03.355Z,41.40
2024-03-06T02:47:16.458Z,43.60
2024-03-06T02:47:29.483Z,42.38
2024-03-06T02:47:42.593Z,40.58
2024-03-06T02:47:55.813Z,41.47
2024-03-06T02:48:09.369Z,42.22
2024-03-06T02:48:22.663Z,41.17
2024-03-06T02:48:35.704Z,40.63
2024-03-06T02:48:49.690Z,40.08
2024-03-06T02:49:02.824Z,40.05
2024-03-06T02:49:16.392Z,41.67
2024-03-06T02:49:29.335Z,42.30
2024-03-06T02:49:42.375Z,43.45
2024-03-06T02:49:55.444Z,43.47
2024-03-06T02:50:09.352Z,41.80
2024-03-06T02:50:22.531Z,39.60
2024-03-06T02:50:37.100Z,39.05
2024-03-06T02:50:51.129Z,39.55
2024-03-06T02:51:04.349Z,42.80
2024-03-06T02:51:19.964Z,44.28
2024-03-06T02:51:33.152Z,43.03
2024-03-06T02:51:46.460Z,43.15
2024-03-06T02:52:02.282Z,40.58
2024-03-06T02:52:15.273Z,37.72
2024-03-06T02:52:28.241Z,39.13
2024-03-06T02:52:42.500Z,40.85
2024-03-06T02:52:55.491Z,40.97
2024-03-06T02:53:08.536Z,41.83
2024-03-06T02:53:21.510Z,42.00
2024-03-06T02:53:34.507Z,40.40
2024-03-06T02:53:47.565Z,41.10
2024-03-06T02:54:00.499Z,42.17
2024-03-06T02:54:13.529Z,41.58
2024-03-06T02:54:27.495Z,42.53
2024-03-06T02:54:42.384Z,43.65
2024-03-06T02:54:55.528Z,45.00
2024-03-06T02:55:08.629Z,45.17
2024-03-06T02:55:21.978Z,39.50
2024-03-06T02:55:35.315Z,38.67
2024-03-06T02:55:48.878Z,42.72
2024-03-06T02:56:02.007Z,43.67
2024-03-06T02:56:17.743Z,41.90
2024-03-06T02:56:31.823Z,40.72
2024-03-06T02:56:44.891Z,42.17
2024-03-06T02:56:57.896Z,42.92
2024-03-06T02:57:10.916Z,41.38